createdAt,value
2023-03-12T00:01:19.377Z,1.30
2023-03-12T00:03:47.971Z,1.30
2023-03-12T00:06:17.243Z,1.30
2023-03-12T00:08:45.810Z,1.30
2023-03-12T00:11:18.467Z,1.30
2023-03-12T00:13:51.219Z,1.30
2023-03-12T00:16:20.114Z,1.30
2023-03-12T00:18:51.082Z,1.30
2023-03-12T00:21:21.865Z,1.30
2023-03-12T00:23:51.335Z,1.40
2023-03-12T00:26:22.560Z,1.30
2023-03-12T00:28:51.761Z,1.40
2023-03-12T00:31:22.082Z,1.40
2023-03-12T00:33:50.936Z,1.40
2023-03-12T00:36:21.344Z,1.40
2023-03-12T00:38:49.565Z,1.30
2023-03-12T00:41:19.590Z,1.30
2023-03-12T00:43:50.149Z,1.30
2023-03-12T00:46:18.922Z,1.30
2023-03-12T00:48:47.499Z,1.30
2023-03-12T00:51:15.812Z,1.30
2023-03-12T00:53:44.075Z,1.30
2023-03-12T00:56:12.404Z,1.30
2023-03-12T00:58:42.651Z,1.30
2023-03-12T01:01:12.627Z,1.30
2023-03-12T01:03:41.120Z,1.30
2023-03-12T01:06:10.328Z,1.30
2023-03-12T01:08:39.013Z,1.30
2023-03-12T01:11:08.092Z,1.20
2023-03-12T01:13:36.366Z,1.20
2023-03-12T01:16:04.959Z,1.10
2023-03-12T01:18:34.784Z,1.20
2023-03-12T01:21:03.710Z,1.20
2023-03-12T01:23:32.145Z,1.20
2023-03-12T01:26:00.842Z,1.20
2023-03-12T01:28:29.151Z,1.10
2023-03-12T01:30:57.347Z,1.20
2023-03-12T01:33:25.758Z,1.10
2023-03-12T01:35:55.809Z,1.20
2023-03-12T01:38:24.057Z,1.20
2023-03-12T01:40:52.328Z,1.20
2023-03-12T01:43:29.503Z,1.20
2023-03-12T01:46:27.417Z,1.20
2023-03-12T01:49:04.288Z,1.20
2023-03-12T01:51:42.144Z,1.10
2023-03-12T01:54:16.671Z,1.10
2023-03-12T01:56:45.301Z,1.10
2023-03-12T01:59:21.123Z,1.10
2023-03-12T02:01:51.374Z,1.10
2023-03-12T02:04:24.319Z,1.20
2023-03-12T02:07:03.979Z,1.20
2023-03-12T02:09:34.795Z,1.40
2023-03-12T02:12:03.135Z,1.40
2023-03-12T02:14:31.850Z,1.40
2023-03-12T02:17:00.536Z,1.40
2023-03-12T02:19:41.765Z,1.50
2023-03-12T02:22:12.584Z,1.40
2023-03-12T02:24:47.862Z,1.40
2023-03-12T02:27:19.760Z,1.40
2023-03-12T02:29:49.485Z,1.40
2023-03-12T02:32:24.119Z,1.50
2023-03-12T02:34:52.497Z,1.50
2023-03-12T02:37:21.349Z,1.50
2023-03-12T02:39:59.020Z,1.50
2023-03-12T02:42:28.976Z,1.40
2023-03-12T02:44:59.069Z,1.50
2023-03-12T02:47:27.459Z,1.40
2023-03-12T02:49:55.777Z,1.40
2023-03-12T02:52:24.293Z,1.40
2023-03-12T02:54:52.523Z,1.50
2023-03-12T02:57:20.931Z,1.40
2023-03-12T02:59:50.470Z,1.40
2023-03-12T03:02:18.815Z,1.40
2023-03-12T03:04:47.173Z,1.30
2023-03-12T03:07:15.845Z,1.30
2023-03-12T03:09:44.172Z,1.20
2023-03-12T03:12:12.571Z,1.20
2023-03-12T03:14:42.103Z,1.20
2023-03-12T03:17:11.885Z,1.20
2023-03-12T03:19:40.131Z,1.20
2023-03-12T03:22:08.537Z,1.10
2023-03-12T03:24:37.119Z,1.20
2023-03-12T03:27:05.513Z,1.10
2023-03-12T03:29:33.871Z,1.10
2023-03-12T03:32:03.644Z,1.10
2023-03-12T03:34:33.764Z,1.00
2023-03-12T03:37:01.987Z,1.10
2023-03-12T03:39:31.657Z,1.00
2023-03-12T03:41:59.863Z,1.00
2023-03-12T03:44:30.368Z,1.00
2023-03-12T03:46:58.805Z,0.90
2023-03-12T03:49:27.382Z,0.90
2023-03-12T03:51:57.041Z,0.90
2023-03-12T03:54:36.018Z,0.80
2023-03-12T03:57:06.043Z,0.80
2023-03-12T03:59:34.265Z,0.80
2023-03-12T04:02:02.668Z,0.80
2023-03-12T04:04:33.232Z,0.90
2023-03-12T04:07:03.054Z,0.90
2023-03-12T04:09:31.579Z,0.80
2023-03-12T04:11:59.839Z,0.90
2023-03-12T04:14:28.222Z,0.80
2023-03-12T04:16:56.418Z,0.90
2023-03-12T04:19:24.708Z,0.90
2023-03-12T04:21:53.080Z,0.90
2023-03-12T04:24:22.777Z,0.80
2023-03-12T04:26:51.805Z,0.80
2023-03-12T04:29:20.830Z,0.80
2023-03-12T04:31:49.098Z,0.70
2023-03-12T04:34:17.368Z,0.70
2023-03-12T04:36:48.664Z,0.80
2023-03-12T04:39:20.093Z,0.70
2023-03-12T04:41:52.067Z,0.70
2023-03-12T04:44:20.476Z,0.70
2023-03-12T04:46:48.977Z,0.70
2023-03-12T04:49:20.657Z,0.70
2023-03-12T04:51:49.214Z,0.70
2023-03-12T04:54:17.588Z,0.70
2023-03-12T04:56:45.861Z,0.70
2023-03-12T04:59:15.746Z,0.60
2023-03-12T05:01:45.774Z,0.60
2023-03-12T05:04:20.259Z,0.60
2023-03-12T05:06:49.044Z,0.60
2023-03-12T05:09:17.503Z,0.60
2023-03-12T05:11:45.924Z,0.70
2023-03-12T05:14:18.679Z,0.70
2023-03-12T05:16:48.501Z,0.70
2023-03-12T05:19:16.848Z,0.60
2023-03-12T05:21:45.246Z,0.60
2023-03-12T05:24:13.866Z,0.60
2023-03-12T05:26:42.113Z,0.50
2023-03-12T05:29:13.891Z,0.50
2023-03-12T05:31:43.784Z,0.50
2023-03-12T05:34:14.277Z,0.50
2023-03-12T05:36:45.223Z,0.50
2023-03-12T05:39:15.994Z,0.50
2023-03-12T05:41:44.708Z,0.50
2023-03-12T05:44:17.453Z,0.50
2023-03-12T05:46:52.331Z,0.50
2023-03-12T05:49:21.428Z,0.50
2023-03-12T05:51:51.252Z,0.60
2023-03-12T05:54:22.023Z,0.60
2023-03-12T05:56:53.031Z,0.70
2023-03-12T05:59:23.345Z,0.70
2023-03-12T06:01:54.627Z,0.70
2023-03-12T06:04:22.910Z,0.70
2023-03-12T06:06:53.142Z,0.70
2023-03-12T06:09:21.618Z,0.80
2023-03-12T06:11:49.931Z,0.90
2023-03-12T06:14:18.233Z,0.80
2023-03-12T06:16:46.781Z,0.90
2023-03-12T06:19:18.523Z,0.90
2023-03-12T06:21:49.671Z,1.00
2023-03-12T06:24:17.935Z,1.00
2023-03-12T06:26:50.466Z,1.00
2023-03-12T06:29:18.829Z,1.00
2023-03-12T06:31:48.191Z,1.10
2023-03-12T06:34:20.264Z,1.10
2023-03-12T06:36:48.549Z,1.20
2023-03-12T06:39:16.748Z,1.10
2023-03-12T06:41:44.994Z,1.10
2023-03-12T06:44:13.292Z,1.20
2023-03-12T06:46:43.918Z,1.30
2023-03-12T06:49:12.444Z,1.30
2023-03-12T06:51:42.347Z,1.30
2023-03-12T06:54:10.701Z,1.50
2023-03-12T06:56:39.356Z,1.60
2023-03-12T06:59:07.952Z,1.70
2023-03-12T07:01:36.237Z,1.90
2023-03-12T07:04:04.453Z,2.00
2023-03-12T07:06:32.760Z,2.10
2023-03-12T07:09:02.408Z,2.30
2023-03-12T07:11:30.720Z,2.40
2023-03-12T07:13:59.000Z,2.40
2023-03-12T07:16:27.364Z,2.50
2023-03-12T07:18:55.633Z,2.60
2023-03-12T07:21:24.007Z,2.60
2023-03-12T07:23:52.880Z,2.70
2023-03-12T07:26:23.105Z,2.70
2023-03-12T07:28:51.355Z,2.70
2023-03-12T07:31:19.710Z,2.80
2023-03-12T07:33:48.067Z,2.80
2023-03-12T07:36:17.869Z,2.70
2023-03-12T07:38:46.174Z,2.60
2023-03-12T07:41:14.487Z,2.50
2023-03-12T07:43:44.543Z,2.50
2023-03-12T07:46:13.344Z,2.50
2023-03-12T07:48:44.196Z,2.50
2023-03-12T07:51:12.750Z,2.50
2023-03-12T07:53:41.000Z,2.50
2023-03-12T07:56:09.592Z,2.50
2023-03-12T07:58:39.168Z,2.60
2023-03-12T08:01:08.995Z,2.50
2023-03-12T08:03:38.756Z,2.50
2023-03-12T08:06:07.982Z,2.60
2023-03-12T08:08:38.206Z,2.70
2023-03-12T08:11:07.091Z,2.70
2023-03-12T08:13:35.901Z,2.80
2023-03-12T08:16:04.424Z,2.90
2023-03-12T08:18:34.239Z,2.90
2023-03-12T08:21:02.601Z,3.00
2023-03-12T08:23:30.871Z,3.00
2023-03-12T08:26:00.208Z,3.00
2023-03-12T08:28:28.691Z,3.10
2023-03-12T08:31:00.428Z,3.10
2023-03-12T08:33:29.244Z,3.10
2023-03-12T08:35:59.193Z,3.20
2023-03-12T08:38:27.792Z,3.30
2023-03-12T08:40:58.318Z,3.30
2023-03-12T08:43:29.196Z,3.30
2023-03-12T08:45:59.460Z,3.40
2023-03-12T08:48:28.641Z,3.40
2023-03-12T08:51:00.296Z,3.40
2023-03-12T08:53:29.229Z,3.50
2023-03-12T08:55:58.540Z,3.60
2023-03-12T08:58:27.675Z,3.60
2023-03-12T09:00:57.994Z,3.70
2023-03-12T09:03:27.626Z,3.70
2023-03-12T09:06:07.585Z,3.80
2023-03-12T09:08:35.804Z,3.80
2023-03-12T09:11:04.033Z,3.80
2023-03-12T09:13:54.285Z,3.80
2023-03-12T09:16:20.825Z,3.80
2023-03-12T09:18:49.225Z,3.80
2023-03-12T09:21:18.977Z,3.80
2023-03-12T09:23:47.756Z,3.80
2023-03-12T09:26:16.009Z,3.70
2023-03-12T09:28:44.918Z,3.80
2023-03-12T09:31:13.362Z,3.70
2023-03-12T09:33:41.616Z,3.80
2023-03-12T09:36:10.281Z,4.10
2023-03-12T09:38:40.025Z,4.30
2023-03-12T09:41:20.311Z,4.40
2023-03-12T09:43:54.895Z,4.50
2023-03-12T09:46:31.111Z,4.60
2023-03-12T09:49:04.933Z,4.80
2023-03-12T09:51:39.757Z,5.10
2023-03-12T09:54:24.532Z,5.30
2023-03-12T09:56:57.116Z,5.30
2023-03-12T09:59:27.834Z,5.30
2023-03-12T10:02:01.289Z,5.30
2023-03-12T10:04:58.069Z,5.50
2023-03-12T10:07:35.600Z,5.30
2023-03-12T10:10:45.086Z,5.10
2023-03-12T10:13:42.480Z,5.00
2023-03-12T10:16:32.324Z,4.90
2023-03-12T10:19:22.546Z,4.80
2023-03-12T10:22:02.194Z,4.80
2023-03-12T10:24:57.303Z,4.70
2023-03-12T10:27:31.438Z,4.80
2023-03-12T10:30:01.692Z,4.80
2023-03-12T10:32:41.497Z,4.80
2023-03-12T10:35:18.898Z,4.80
2023-03-12T10:37:51.146Z,4.80
2023-03-12T10:40:23.096Z,4.90
2023-03-12T10:42:53.671Z,4.80
2023-03-12T10:45:35.539Z,4.70
2023-03-12T10:48:07.098Z,4.70
2023-03-12T10:50:38.304Z,4.70
2023-03-12T10:53:32.921Z,4.70
2023-03-12T10:56:07.071Z,4.70
2023-03-12T10:58:40.459Z,4.70
2023-03-12T11:01:21.527Z,4.70
2023-03-12T11:03:51.108Z,4.70
2023-03-12T11:06:26.136Z,4.70
2023-03-12T11:09:17.437Z,4.60
2023-03-12T11:11:48.401Z,4.70
2023-03-12T11:14:21.683Z,4.70
2023-03-12T11:16:50.919Z,4.70
2023-03-12T11:19:30.600Z,4.70
2023-03-12T11:22:01.457Z,4.70
2023-03-12T11:24:32.299Z,4.70
2023-03-12T11:27:08.321Z,4.60
2023-03-12T11:29:44.214Z,4.60
2023-03-12T11:32:19.884Z,4.60
2023-03-12T11:34:49.550Z,4.60
2023-03-12T11:37:31.054Z,4.60
2023-03-12T11:40:16.890Z,4.70
2023-03-12T11:43:17.633Z,4.70
2023-03-12T11:46:12.552Z,4.70
2023-03-12T11:48:56.378Z,4.70
2023-03-12T11:51:42.285Z,4.80
2023-03-12T11:54:34.811Z,4.70
2023-03-12T11:57:11.239Z,4.70
2023-03-12T12:00:04.925Z,4.70
2023-03-12T12:03:16.384Z,4.60
2023-03-12T12:06:00.609Z,4.60
2023-03-12T12:08:46.257Z,4.60
2023-03-12T12:11:28.866Z,4.60
2023-03-12T12:14:15.783Z,4.60
2023-03-12T12:17:11.108Z,4.70
2023-03-12T12:20:09.153Z,4.70
2023-03-12T12:22:51.007Z,4.80
2023-03-12T12:25:35.169Z,4.70
2023-03-12T12:28:23.248Z,4.70
2023-03-12T12:31:13.477Z,4.70
2023-03-12T12:34:01.891Z,4.70
2023-03-12T12:36:36.778Z,4.60
2023-03-12T12:39:14.952Z,4.60
2023-03-12T12:41:50.294Z,4.60
2023-03-12T12:44:26.257Z,4.60
2023-03-12T12:47:02.421Z,4.50
2023-03-12T12:49:40.484Z,4.50
2023-03-12T12:52:19.996Z,4.30
2023-03-12T12:54:59.654Z,4.20
2023-03-12T12:57:40.256Z,4.10
2023-03-12T13:00:34.502Z,4.00
2023-03-12T13:03:03.602Z,4.10
2023-03-12T13:05:55.880Z,4.10
2023-03-12T13:09:03.211Z,4.10
2023-03-12T13:11:41.415Z,4.00
2023-03-12T13:14:24.091Z,4.00
2023-03-12T13:17:19.606Z,4.00
2023-03-12T13:20:00.878Z,4.00
2023-03-12T13:23:04.688Z,4.00
2023-03-12T13:25:54.066Z,4.00
2023-03-12T13:28:35.546Z,3.90
2023-03-12T13:31:35.676Z,3.90
2023-03-12T13:34:45.802Z,3.90
2023-03-12T13:37:53.753Z,3.90
2023-03-12T13:41:02.572Z,3.80
2023-03-12T13:43:52.846Z,3.80
2023-03-12T13:46:38.081Z,3.70
2023-03-12T13:49:14.829Z,3.70
2023-03-12T13:51:58.965Z,3.80
2023-03-12T13:54:34.311Z,3.80
2023-03-12T13:57:12.654Z,3.70
2023-03-12T13:59:46.413Z,3.60
2023-03-12T14:02:26.078Z,3.60
2023-03-12T14:04:58.107Z,3.60
2023-03-12T14:08:11.044Z,3.50
2023-03-12T14:11:17.207Z,3.60
2023-03-12T14:14:41.391Z,3.50
2023-03-12T14:17:19.089Z,3.50
2023-03-12T14:19:53.625Z,3.40
2023-03-12T14:22:23.974Z,3.50
2023-03-12T14:24:58.836Z,3.40
2023-03-12T14:27:31.996Z,3.40
2023-03-12T14:30:13.440Z,3.40
2023-03-12T14:32:44.807Z,3.40
2023-03-12T14:35:22.787Z,3.30
2023-03-12T14:37:59.575Z,3.30
2023-03-12T14:40:43.757Z,3.20
2023-03-12T14:43:25.884Z,3.20
2023-03-12T14:46:01.415Z,3.10
2023-03-12T14:48:33.086Z,3.10
2023-03-12T14:51:03.532Z,3.10
2023-03-12T14:53:34.529Z,3.00
2023-03-12T14:56:07.438Z,3.00
2023-03-12T14:58:44.744Z,3.00
2023-03-12T15:01:19.960Z,2.90
2023-03-12T15:03:52.163Z,2.80
2023-03-12T15:06:28.830Z,2.70
2023-03-12T15:08:58.147Z,2.70
2023-03-12T15:11:30.494Z,2.70
2023-03-12T15:14:06.013Z,2.70
2023-03-12T15:16:36.680Z,2.60
2023-03-12T15:19:05.960Z,2.60
2023-03-12T15:21:36.357Z,2.50
2023-03-12T15:24:07.596Z,2.50
2023-03-12T15:26:38.047Z,2.60
2023-03-12T15:29:26.412Z,2.60
2023-03-12T15:31:59.890Z,2.60
2023-03-12T15:34:33.170Z,2.60
2023-03-12T15:37:04.635Z,2.50
2023-03-12T15:39:35.974Z,2.50
2023-03-12T15:42:10.896Z,2.50
2023-03-12T15:44:48.123Z,2.50
2023-03-12T15:47:21.419Z,2.60
2023-03-12T15:49:54.713Z,2.60
2023-03-12T15:52:33.861Z,2.50
2023-03-12T15:55:27.020Z,2.50
2023-03-12T15:57:59.511Z,2.60
2023-03-12T16:00:30.969Z,2.50
2023-03-12T16:03:05.955Z,2.50
2023-03-12T16:05:37.685Z,2.50
2023-03-12T16:08:16.731Z,2.50
2023-03-12T16:10:45.180Z,2.50
2023-03-12T16:13:18.365Z,2.50
2023-03-12T16:15:49.659Z,2.50
2023-03-12T16:18:22.585Z,2.50
2023-03-12T16:20:53.177Z,2.40
2023-03-12T16:23:21.626Z,2.50
2023-03-12T16:25:55.589Z,2.50
2023-03-12T16:28:25.858Z,2.60
2023-03-12T16:30:55.014Z,2.60
2023-03-12T16:33:26.484Z,2.60
2023-03-12T16:35:54.806Z,2.60
2023-03-12T16:38:23.083Z,2.60
2023-03-12T16:40:53.744Z,2.70
2023-03-12T16:43:25.425Z,2.60
2023-03-12T16:45:56.720Z,2.60
2023-03-12T16:48:26.748Z,2.70
2023-03-12T16:50:58.005Z,2.70
2023-03-12T16:53:27.898Z,2.80
2023-03-12T16:55:58.912Z,2.80
2023-03-12T16:58:29.046Z,2.80
2023-03-12T17:00:58.325Z,2.80
2023-03-12T17:03:35.779Z,2.80
2023-03-12T17:06:07.716Z,2.90
2023-03-12T17:08:36.737Z,2.90
2023-03-12T17:11:17.803Z,2.90
2023-03-12T17:13:48.029Z,2.90
2023-03-12T17:16:16.488Z,2.90
2023-03-12T17:18:46.389Z,3.00
2023-03-12T17:21:17.956Z,3.00
2023-03-12T17:23:50.236Z,3.00
2023-03-12T17:26:19.658Z,3.00
2023-03-12T17:28:48.989Z,3.00
2023-03-12T17:31:17.415Z,3.10
2023-03-12T17:33:47.117Z,3.10
2023-03-12T17:36:15.600Z,3.10
2023-03-12T17:38:43.886Z,3.10
2023-03-12T17:41:25.504Z,3.10
2023-03-12T17:43:58.377Z,3.20
2023-03-12T17:46:27.121Z,3.30
2023-03-12T17:48:57.434Z,3.30
2023-03-12T17:51:26.727Z,3.40
2023-03-12T17:53:55.263Z,3.50
2023-03-12T17:56:23.848Z,3.80
2023-03-12T17:58:52.337Z,3.90
2023-03-12T18:01:20.886Z,3.90
2023-03-12T18:03:51.137Z,3.90
2023-03-12T18:06:20.998Z,3.80
2023-03-12T18:08:49.323Z,3.80
2023-03-12T18:11:17.621Z,3.80
2023-03-12T18:13:48.262Z,3.90
2023-03-12T18:16:17.231Z,3.90
2023-03-12T18:18:45.561Z,4.00
2023-03-12T18:21:13.836Z,4.00
2023-03-12T18:23:45.936Z,4.00
2023-03-12T18:26:14.219Z,4.10
2023-03-12T18:28:42.497Z,4.10
2023-03-12T18:31:11.322Z,4.20
2023-03-12T18:33:41.718Z,4.20
2023-03-12T18:36:10.496Z,4.20
2023-03-12T18:38:38.884Z,4.30
2023-03-12T18:41:12.156Z,4.30
2023-03-12T18:43:41.298Z,4.40
2023-03-12T18:46:11.277Z,4.40
2023-03-12T18:48:42.283Z,4.50
2023-03-12T18:51:12.989Z,4.60
2023-03-12T18:53:41.408Z,4.60
2023-03-12T18:56:11.004Z,4.70
2023-03-12T18:58:39.711Z,4.70
2023-03-12T19:01:08.090Z,4.70
2023-03-12T19:03:37.190Z,4.80
2023-03-12T19:06:08.768Z,4.80
2023-03-12T19:08:38.203Z,4.80
2023-03-12T19:11:09.028Z,4.90
2023-03-12T19:13:39.180Z,4.90
2023-03-12T19:16:11.791Z,4.90
2023-03-12T19:18:40.756Z,5.00
2023-03-12T19:21:09.446Z,5.00
2023-03-12T19:23:37.716Z,5.00
2023-03-12T19:26:07.570Z,5.10
2023-03-12T19:28:38.400Z,5.10
2023-03-12T19:31:10.675Z,5.20
2023-03-12T19:33:39.571Z,5.20
2023-03-12T19:36:09.188Z,5.20
2023-03-12T19:38:37.700Z,5.30
2023-03-12T19:41:09.548Z,5.40
2023-03-12T19:43:40.703Z,5.40
2023-03-12T19:46:09.343Z,5.40
2023-03-12T19:48:37.641Z,5.50
2023-03-12T19:51:07.845Z,5.60
2023-03-12T19:53:36.367Z,5.60
2023-03-12T19:56:05.952Z,5.60
2023-03-12T19:58:34.277Z,5.70
2023-03-12T20:01:04.990Z,5.70
2023-03-12T20:03:33.715Z,5.70
2023-03-12T20:06:02.157Z,5.80
2023-03-12T20:08:33.514Z,5.80
2023-03-12T20:11:07.450Z,5.90
2023-03-12T20:13:37.908Z,6.00
2023-03-12T20:16:09.051Z,6.00
2023-03-12T20:18:37.399Z,6.00
2023-03-12T20:21:06.263Z,6.00
2023-03-12T20:23:34.474Z,6.00
2023-03-12T20:26:03.048Z,6.00
2023-03-12T20:28:31.409Z,6.00
2023-03-12T20:31:10.230Z,6.10
2023-03-12T20:33:39.415Z,6.10
2023-03-12T20:36:10.559Z,6.10
2023-03-12T20:38:39.116Z,6.20
2023-03-12T20:41:13.990Z,6.10
2023-03-12T20:43:42.852Z,6.10
2023-03-12T20:46:13.602Z,6.20
2023-03-12T20:48:41.910Z,6.20
2023-03-12T20:51:11.596Z,6.20
2023-03-12T20:53:39.839Z,6.20
2023-03-12T20:56:09.437Z,6.20
2023-03-12T20:58:38.026Z,6.20
2023-03-12T21:01:07.697Z,6.20
2023-03-12T21:03:37.365Z,6.20
2023-03-12T21:06:06.410Z,6.20
2023-03-12T21:08:35.108Z,6.20
2023-03-12T21:11:06.988Z,6.20
2023-03-12T21:13:35.545Z,6.20
2023-03-12T21:16:06.700Z,6.20
2023-03-12T21:18:35.353Z,6.30
2023-03-12T21:21:07.926Z,6.30
2023-03-12T21:23:37.912Z,6.30
2023-03-12T21:26:09.566Z,6.30
2023-03-12T21:28:38.364Z,6.30
2023-03-12T21:31:07.874Z,6.30
2023-03-12T21:33:36.554Z,6.30
2023-03-12T21:36:09.213Z,6.40
2023-03-12T21:38:38.914Z,6.40
2023-03-12T21:41:08.709Z,6.40
2023-03-12T21:43:37.635Z,6.30
2023-03-12T21:46:07.684Z,6.40
2023-03-12T21:48:36.892Z,6.40
2023-03-12T21:51:09.377Z,6.40
2023-03-12T21:53:38.777Z,6.40
2023-03-12T21:56:09.625Z,6.40
2023-03-12T21:58:38.341Z,6.40
2023-03-12T22:01:10.096Z,6.40
2023-03-12T22:03:39.319Z,6.50
2023-03-12T22:06:10.039Z,6.40
2023-03-12T22:08:39.431Z,6.40
2023-03-12T22:11:09.345Z,6.40
2023-03-12T22:13:38.606Z,6.40
2023-03-12T22:16:09.956Z,6.40
2023-03-12T22:18:41.084Z,6.40
2023-03-12T22:21:16.921Z,6.40
2023-03-12T22:23:47.755Z,6.40
2023-03-12T22:26:16.390Z,6.40
2023-03-12T22:28:50.623Z,6.40
2023-03-12T22:31:21.340Z,6.50
2023-03-12T22:33:50.463Z,6.50
2023-03-12T22:36:21.440Z,6.60
2023-03-12T22:38:50.469Z,6.50
2023-03-12T22:41:21.607Z,6.60
2023-03-12T22:43:52.364Z,6.60
2023-03-12T22:46:23.860Z,6.60
2023-03-12T22:48:56.095Z,6.60
2023-03-12T22:51:27.255Z,6.70
2023-03-12T22:53:55.748Z,6.90
2023-03-12T22:56:25.584Z,6.90
2023-03-12T22:58:53.957Z,6.80
2023-03-12T23:01:24.125Z,6.80
2023-03-12T23:03:53.540Z,6.80
2023-03-12T23:06:25.839Z,6.80
2023-03-12T23:08:55.641Z,6.90
2023-03-12T23:11:26.125Z,6.90
2023-03-12T23:13:55.127Z,6.90
2023-03-12T23:16:26.476Z,6.80
2023-03-12T23:18:56.141Z,6.90
2023-03-12T23:21:26.111Z,6.90
2023-03-12T23:23:54.952Z,7.00
2023-03-12T23:26:26.432Z,7.00
2023-03-12T23:28:55.921Z,7.00
2023-03-12T23:31:24.541Z,7.10
2023-03-12T23:33:52.809Z,7.10
2023-03-12T23:36:23.619Z,7.00
2023-03-12T23:38:53.405Z,7.00
2023-03-12T23:41:23.868Z,7.00
2023-03-12T23:43:52.952Z,7.10
2023-03-12T23:46:21.951Z,7.10
2023-03-12T23:48:51.243Z,7.10
2023-03-12T23:51:22.404Z,7.10
2023-03-12T23:53:56.597Z,7.10
2023-03-12T23:56:28.511Z,7.10
2023-03-12T23:58:56.760Z,7.10
